Montego — 9HLX8 — position and weather

sailwx.info

Track history (hours):
 
Tides and Currents Weather Stations Pressure Air Temp Water Temp Dewpoint Dewpoint Depression Visibility Wind Speed Wind Dir Waves Ship Positions

Montego

Last reported at 2017-Sep-22 02:01 UTC. Time now 2017-Sep-22 02:42 UTC.
Position N 60°01' E 026°44'.

Length 246 m; draft 15.1 m.

Type: Ship (hazmat cat A). MMSI: 249549000.

Date/timePositionNaut miles runAvg speedWind from/ knotsBaromVisibWave heightAir tempDewpointWater temp
2017-Sep-22 02:01N 60°01' E 026°44'713.9
2017-Sep-22 01:31N 59°60' E 026°58'613.0
2017-Sep-22 01:01N 60°02' E 027°10'713.7
2017-Sep-22 00:31N 60°06' E 027°22'713.7
2017-Sep-22 00:00N 60°09' E 027°34'713.3
2017-Sep-21 23:30N 60°12' E 027°46'714.0
2017-Sep-21 23:00N 60°11' E 027°60'714.0
2017-Sep-21 22:30N 60°09' E 028°13'612.7
2017-Sep-21 22:01N 60°08' E 028°26'713.5
2017-Sep-21 21:30N 60°10' E 028°39'5 9.1
2017-Sep-21 21:00N 60°13' E 028°46'4 7.3
2017-Sep-21 20:30N 60°16' E 028°47'5 9.0
2017-Sep-21 20:00N 60°20' E 028°41'0 0.4
2017-Sep-21 19:29N 60°20' E 028°42'0 0.0
2017-Sep-21 18:59N 60°20' E 028°42'0 0.0
2017-Sep-21 18:29N 60°20' E 028°42'0 0.0
2017-Sep-21 17:59N 60°20' E 028°42'0 0.0
2017-Sep-21 17:29N 60°20' E 028°42'0 0.0
2017-Sep-21 16:56N 60°20' E 028°42'0 0.0
2017-Sep-21 16:29N 60°20' E 028°42'0 0.0
2017-Sep-21 15:59N 60°20' E 028°42'0 0.0
2017-Sep-21 15:29N 60°20' E 028°42'0 0.0
2017-Sep-21 14:59N 60°20' E 028°42'0 0.0
2017-Sep-21 14:29N 60°20' E 028°42'0 0.0
2017-Sep-21 13:59N 60°20' E 028°42'0 0.0
2017-Sep-21 13:29N 60°20' E 028°42'0 0.0
2017-Sep-21 12:59N 60°20' E 028°42'0 0.0
2017-Sep-21 12:29N 60°20' E 028°42'0 0.0
2017-Sep-21 11:59N 60°20' E 028°42'0 0.0
2017-Sep-21 11:29N 60°20' E 028°42'0 0.0
2017-Sep-21 10:59N 60°20' E 028°42'0 0.0
2017-Sep-21 10:29N 60°20' E 028°42'0 0.0
2017-Sep-21 09:59N 60°20' E 028°42'0 0.0
2017-Sep-21 09:29N 60°20' E 028°42'0 0.0
2017-Sep-21 08:59N 60°20' E 028°42'0 0.0
2017-Sep-21 08:29N 60°20' E 028°42'0 0.0
2017-Sep-21 07:59N 60°20' E 028°42'0 0.0
2017-Sep-21 07:29N 60°20' E 028°42'0 0.0
2017-Sep-21 06:59N 60°20' E 028°42'0 0.0
2017-Sep-21 06:29N 60°20' E 028°42'0 0.0
2017-Sep-21 05:59N 60°20' E 028°42'0 0.0
2017-Sep-21 05:29N 60°20' E 028°42'0 0.0
2017-Sep-21 04:58N 60°20' E 028°42'0 0.0
2017-Sep-21 04:10N 60°20' E 028°42'0 0.0
2017-Sep-21 03:58N 60°20' E 028°42'0 0.0
2017-Sep-21 03:28N 60°20' E 028°42'0 0.0
2017-Sep-21 02:58N 60°20' E 028°42'0 0.0
2017-Sep-21 02:28N 60°20' E 028°42'0 0.0
2017-Sep-21 01:58N 60°20' E 028°42'0 0.0
2017-Sep-21 01:25N 60°20' E 028°42'0 0.0
2017-Sep-21 00:58N 60°20' E 028°42'0 0.0
2017-Sep-21 00:28N 60°20' E 028°42'0 0.0
2017-Sep-20 23:58N 60°20' E 028°42'0 0.0
2017-Sep-20 23:28N 60°20' E 028°42'0 0.0
2017-Sep-20 22:58N 60°20' E 028°42'0 0.0
2017-Sep-20 22:28N 60°20' E 028°42'0 0.0
2017-Sep-20 21:55N 60°20' E 028°42'0 0.0
2017-Sep-20 21:28N 60°20' E 028°42'0 0.0
2017-Sep-20 20:58N 60°20' E 028°42'0 0.0
2017-Sep-20 20:28N 60°20' E 028°42'0 0.0
2017-Sep-20 19:58N 60°20' E 028°42'0 0.0
2017-Sep-20 19:28N 60°20' E 028°42'0 0.0
2017-Sep-20 18:46N 60°20' E 028°42'0 0.0
2017-Sep-20 17:40N 60°20' E 028°42'0 0.0
2017-Sep-20 17:13N 60°20' E 028°42'0 0.0
2017-Sep-20 16:46N 60°20' E 028°42'0 0.0
2017-Sep-20 16:22N 60°20' E 028°42'0 0.0
2017-Sep-20 15:46N 60°20' E 028°42'0 0.0
2017-Sep-20 15:28N 60°20' E 028°42'0 0.0
2017-Sep-20 14:58N 60°20' E 028°42'0 0.5
2017-Sep-20 14:00N 60°20' E 028°41'3 6.0
2017-Sep-20 13:31N 60°17' E 028°45'3 7.0
2017-Sep-20 13:00N 60°14' E 028°47'612.4
2017-Sep-20 12:30N 60°10' E 028°39'510.8
2017-Sep-20 12:00N 60°05' E 028°33'5 9.5
2017-Sep-20 11:30N 60°01' E 028°27'0 0.5
2017-Sep-20 11:00N 60°01' E 028°27'0 0.1
2017-Sep-20 10:30N 60°01' E 028°27'0 0.1
2017-Sep-20 09:59N 60°01' E 028°27'0 0.0
2017-Sep-20 09:29N 60°01' E 028°27'0 0.0
2017-Sep-20 08:59N 60°01' E 028°27'0 0.1
2017-Sep-20 08:29N 60°01' E 028°27'0 0.2
2017-Sep-20 07:59N 60°01' E 028°27'0 0.2
2017-Sep-20 07:29N 60°01' E 028°27'0 0.1
2017-Sep-20 06:59N 60°01' E 028°27'0 0.1
2017-Sep-20 06:29N 60°01' E 028°27'0 0.1
2017-Sep-20 05:59N 60°01' E 028°27'0 0.1
2017-Sep-20 05:29N 60°01' E 028°27'0 0.1
2017-Sep-20 04:59N 60°01' E 028°27'0 0.1
2017-Sep-20 04:29N 60°01' E 028°27'0 0.1
2017-Sep-20 03:59N 60°01' E 028°27'0 0.0
2017-Sep-20 03:29N 60°01' E 028°27'0 0.1
2017-Sep-20 02:59N 60°01' E 028°27'0 0.0
2017-Sep-20 02:29N 60°01' E 028°27'0 0.0
2017-Sep-20 01:59N 60°01' E 028°27'0 0.1
2017-Sep-20 01:29N 60°01' E 028°27'0 0.0
2017-Sep-20 00:59N 60°01' E 028°27'0 0.0
2017-Sep-20 00:29N 60°01' E 028°27'0 0.0
2017-Sep-19 23:59N 60°01' E 028°27'0 0.1
2017-Sep-19 23:29N 60°01' E 028°27'0 0.0
2017-Sep-19 22:59N 60°01' E 028°27'0 0.0
2017-Sep-19 22:26N 60°01' E 028°27'0 0.1
2017-Sep-19 21:59N 60°01' E 028°27'0 0.1
2017-Sep-19 21:29N 60°01' E 028°27'0 0.5
2017-Sep-19 21:00N 60°01' E 028°27'2 3.2
2017-Sep-19 20:30N 60°03' E 028°27'4 7.1
2017-Sep-19 20:00N 60°05' E 028°21'4 8.4
2017-Sep-19 19:30N 60°07' E 028°14'4 8.5
2017-Sep-19 19:00N 60°08' E 028°06'5 9.0
2017-Sep-19 18:30N 60°10' E 027°57'4 8.9
2017-Sep-19 18:00N 60°11' E 027°49'4 8.7
2017-Sep-19 17:30N 60°09' E 027°41'4 8.8
2017-Sep-19 17:00N 60°07' E 027°33'4 8.9
2017-Sep-19 16:30N 60°05' E 027°26'4 8.9
2017-Sep-19 16:00N 60°02' E 027°18'4 9.0
2017-Sep-19 15:30N 59°60' E 027°10'4 8.9
2017-Sep-19 15:00N 59°58' E 027°02'5 9.2
2017-Sep-19 14:30N 59°59' E 026°53'5 9.2
2017-Sep-19 14:00N 59°60' E 026°44'5 9.1
2017-Sep-19 13:30N 59°59' E 026°35'510.0
2017-Sep-19 13:00N 59°57' E 026°26'510.4
2017-Sep-19 12:30N 59°56' E 026°16'3910.4
2017-Sep-19 08:46N 59°47' E 024°60'310.2
2017-Sep-19 08:30N 59°47' E 024°55'510.0
2017-Sep-19 08:00N 59°45' E 024°45'510.1
2017-Sep-19 07:30N 59°45' E 024°35'510.2
2017-Sep-19 07:00N 59°44' E 024°25'1010.2
2017-Sep-19 06:04N 59°41' E 024°07'110.1
2017-Sep-19 05:59N 59°40' E 024°06'510.1
2017-Sep-19 05:30N 59°39' E 023°56'611.2
2017-Sep-19 05:00N 59°38' E 023°46'714.3
2017-Sep-19 04:31N 59°35' E 023°33'714.2
2017-Sep-19 04:01N 59°32' E 023°20'813.9
2017-Sep-19 03:26N 59°29' E 023°05'30112.3
2017-Sep-18 02:58N 55°47' E 016°44'511.7
2017-Sep-18 02:30N 55°46' E 016°35'611.8
2017-Sep-18 02:00N 55°45' E 016°25'611.8
2017-Sep-18 01:30N 55°43' E 016°15'611.9
2017-Sep-18 01:00N 55°42' E 016°05'612.0
2017-Sep-18 00:30N 55°40' E 015°54'611.8
2017-Sep-18 00:00N 55°39' E 015°44'611.9
2017-Sep-17 23:30N 55°37' E 015°34'611.9
2017-Sep-17 23:00N 55°36' E 015°24'612.0
2017-Sep-17 22:30N 55°33' E 015°14'612.1
2017-Sep-17 22:00N 55°31' E 015°05'612.2
2017-Sep-17 21:30N 55°28' E 014°55'712.3
2017-Sep-17 20:57N 55°26' E 014°44'611.9
2017-Sep-17 20:29N 55°22' E 014°36'612.4
2017-Sep-17 20:00N 55°18' E 014°29'612.0
2017-Sep-17 19:30N 55°13' E 014°22'611.5
2017-Sep-17 19:00N 55°09' E 014°15'612.3
2017-Sep-17 18:30N 55°10' E 014°04'612.3
2017-Sep-17 18:00N 55°10' E 013°53'912.4
2017-Sep-17 17:15N 55°10' E 013°37'612.3
2017-Sep-17 16:46N 55°11' E 013°26'612.2
2017-Sep-17 16:15N 55°12' E 013°15'312.3
2017-Sep-17 16:00N 55°12' E 013°10'612.6
2017-Sep-17 15:30N 55°14' E 012°59'713.4
2017-Sep-17 15:00N 55°15' E 012°48'612.7
2017-Sep-17 14:30N 55°18' E 012°38'510.4
2017-Sep-17 14:00N 55°24' E 012°38'4 8.8
2017-Sep-17 13:30N 55°28' E 012°40'4 8.3
2017-Sep-17 13:00N 55°32' E 012°42'4 7.1
2017-Sep-17 12:30N 55°35' E 012°42'3 6.8
2017-Sep-17 12:00N 55°39' E 012°41'5 9.9
2017-Sep-17 11:30N 55°44' E 012°41'611.8
2017-Sep-17 11:00N 55°50' E 012°42'713.8
2017-Sep-17 10:30N 55°56' E 012°39'713.5
2017-Sep-17 10:00N 56°03' E 012°39'613.0
2017-Sep-17 09:30N 56°07' E 012°30'5 9.0
2017-Sep-17 09:00N 56°10' E 012°24'5 9.1
2017-Sep-17 08:27N 56°13' E 012°16'3510.0
2017-Sep-17 04:55N 56°46' E 011°52'712.8
2017-Sep-17 04:22N 56°52' E 011°48'513.0
2017-Sep-17 04:00N 56°57' E 011°45'612.9
2017-Sep-17 03:30N 57°03' E 011°41'712.6
2017-Sep-17 02:58N 57°09' E 011°36'612.8
2017-Sep-17 02:30N 57°15' E 011°32'612.8
2017-Sep-17 02:00N 57°21' E 011°29'612.6
2017-Sep-17 01:30N 57°27' E 011°25'612.7
2017-Sep-17 01:00N 57°31' E 011°16'612.4
2017-Sep-17 00:30N 57°35' E 011°08'612.5
2017-Sep-17 00:00N 57°40' E 010°59'612.5
2017-Sep-16 23:30N 57°44' E 010°51'611.8
2017-Sep-16 23:00N 57°48' E 010°42'713.9
2017-Sep-16 22:31N 57°48' E 010°30'714.3
2017-Sep-16 22:01N 57°47' E 010°16'45413.3
2017-Sep-15 11:47N 51°41' E 002°31'415.6
2017-Sep-15 11:31N 51°38' E 002°26'815.7
2017-Sep-15 11:00N 51°32' E 002°18'815.9
2017-Sep-15 10:31N 51°26' E 002°10'815.2
2017-Sep-15 10:01N 51°19' E 002°08'714.9
2017-Sep-15 09:31N 51°13' E 002°00'816.2
2017-Sep-15 09:01N 51°08' E 001°49'816.3
2017-Sep-15 08:30N 51°03' E 001°40'816.7
2017-Sep-15 08:01N 50°57' E 001°31'1516.3
2017-Sep-15 07:05N 50°43' E 001°21'215.6
2017-Sep-15 06:57N 50°41' E 001°19'715.9
2017-Sep-15 06:31N 50°36' E 001°11'815.7
2017-Sep-15 06:00N 50°31' E 001°03'3015.7
2017-Sep-15 04:05N 50°22' E 000°17'116.4
2017-Sep-15 04:00N 50°22' E 000°15'816.5
2017-Sep-15 03:30N 50°20' E 000°03'816.5
2017-Sep-15 03:01N 50°17' W 000°10'3816.6
2017-Sep-15 00:43N 50°08' W 001°07'316.0
2017-Sep-15 00:30N 50°07' W 001°12'815.6
2017-Sep-15 00:00N 50°05' W 001°24'815.1
2017-Sep-14 23:30N 50°03' W 001°35'714.5
2017-Sep-14 23:00N 50°01' W 001°46'714.0
2017-Sep-14 22:31N 49°59' W 001°57'713.5
2017-Sep-14 22:01N 49°57' W 002°07'2513.2
2017-Sep-14 20:08N 49°50' W 002°44'213.7
2017-Sep-14 20:00N 49°50' W 002°46'713.7
2017-Sep-14 19:30N 49°48' W 002°56'713.8
2017-Sep-14 19:00N 49°45' W 003°06'714.0
2017-Sep-14 18:30N 49°41' W 003°15'714.2
2017-Sep-14 18:00N 49°37' W 003°25'714.1
2017-Sep-14 17:30N 49°34' W 003°34'7314.1
2017-Sep-14 12:21N 48°58' W 005°11'814.2
2017-Sep-14 11:49N 48°54' W 005°21'514.2
2017-Sep-14 11:27N 48°51' W 005°27'812.9
2017-Sep-14 10:51N 48°45' W 005°35'58612.6
2017-Sep-12 12:21N 39°29' W 009°52'412.4
2017-Sep-12 12:00N 39°25' W 009°52'612.7
2017-Sep-12 11:30N 39°18' W 009°52'612.7
2017-Sep-12 11:00N 39°12' W 009°52'612.4
2017-Sep-12 10:30N 39°06' W 009°51'612.6
2017-Sep-12 10:00N 38°60' W 009°51'612.4
2017-Sep-12 09:30N 38°53' W 009°52'612.0
2017-Sep-12 09:00N 38°48' W 009°51'612.5
2017-Sep-12 08:30N 38°41' W 009°51'713.6
2017-Sep-12 08:00N 38°35' W 009°49'713.2
2017-Sep-12 07:30N 38°28' W 009°47'713.3
2017-Sep-12 07:00N 38°22' W 009°45'713.4
2017-Sep-12 06:29N 38°15' W 009°43'613.1
2017-Sep-12 06:00N 38°09' W 009°41'713.1
2017-Sep-12 05:30N 38°02' W 009°39'713.9
2017-Sep-12 05:00N 37°56' W 009°37'714.1
2017-Sep-12 04:30N 37°49' W 009°35'714.3
2017-Sep-12 04:00N 37°42' W 009°33'714.5
2017-Sep-12 03:30N 37°35' W 009°31'714.5
2017-Sep-12 03:00N 37°28' W 009°29'714.2
2017-Sep-12 02:30N 37°21' W 009°27'  
Track history (hours):
 
Tides and Currents Weather Stations Pressure Air Temp Water Temp Dewpoint Dewpoint Depression Visibility Wind Speed Wind Dir Waves Ship Positions

Montego

Last reported at 2017-Sep-22 02:01 UTC. Time now 2017-Sep-22 02:42 UTC.
Position N 60°01' E 026°44'.

Length 246 m; draft 15.1 m.

Type: Ship (hazmat cat A). MMSI: 249549000.

Date/timePositionNaut miles runAvg speedWind from/ knotsBaromVisibWave heightAir tempDewpointWater temp
2017-Sep-22 02:01N 60°01' E 026°44'713.9
2017-Sep-22 01:31N 59°60' E 026°58'613.0
2017-Sep-22 01:01N 60°02' E 027°10'713.7
2017-Sep-22 00:31N 60°06' E 027°22'713.7
2017-Sep-22 00:00N 60°09' E 027°34'713.3
2017-Sep-21 23:30N 60°12' E 027°46'714.0
2017-Sep-21 23:00N 60°11' E 027°60'714.0
2017-Sep-21 22:30N 60°09' E 028°13'612.7
2017-Sep-21 22:01N 60°08' E 028°26'713.5
2017-Sep-21 21:30N 60°10' E 028°39'5 9.1
2017-Sep-21 21:00N 60°13' E 028°46'4 7.3
2017-Sep-21 20:30N 60°16' E 028°47'5 9.0
2017-Sep-21 20:00N 60°20' E 028°41'0 0.4
2017-Sep-21 19:29N 60°20' E 028°42'0 0.0
2017-Sep-21 18:59N 60°20' E 028°42'0 0.0
2017-Sep-21 18:29N 60°20' E 028°42'0 0.0
2017-Sep-21 17:59N 60°20' E 028°42'0 0.0
2017-Sep-21 17:29N 60°20' E 028°42'0 0.0
2017-Sep-21 16:56N 60°20' E 028°42'0 0.0
2017-Sep-21 16:29N 60°20' E 028°42'0 0.0
2017-Sep-21 15:59N 60°20' E 028°42'0 0.0
2017-Sep-21 15:29N 60°20' E 028°42'0 0.0
2017-Sep-21 14:59N 60°20' E 028°42'0 0.0
2017-Sep-21 14:29N 60°20' E 028°42'0 0.0
2017-Sep-21 13:59N 60°20' E 028°42'0 0.0
2017-Sep-21 13:29N 60°20' E 028°42'0 0.0
2017-Sep-21 12:59N 60°20' E 028°42'0 0.0
2017-Sep-21 12:29N 60°20' E 028°42'0 0.0
2017-Sep-21 11:59N 60°20' E 028°42'0 0.0
2017-Sep-21 11:29N 60°20' E 028°42'0 0.0
2017-Sep-21 10:59N 60°20' E 028°42'0 0.0
2017-Sep-21 10:29N 60°20' E 028°42'0 0.0
2017-Sep-21 09:59N 60°20' E 028°42'0 0.0
2017-Sep-21 09:29N 60°20' E 028°42'0 0.0
2017-Sep-21 08:59N 60°20' E 028°42'0 0.0
2017-Sep-21 08:29N 60°20' E 028°42'0 0.0
2017-Sep-21 07:59N 60°20' E 028°42'0 0.0
2017-Sep-21 07:29N 60°20' E 028°42'0 0.0
2017-Sep-21 06:59N 60°20' E 028°42'0 0.0
2017-Sep-21 06:29N 60°20' E 028°42'0 0.0
2017-Sep-21 05:59N 60°20' E 028°42'0 0.0
2017-Sep-21 05:29N 60°20' E 028°42'0 0.0
2017-Sep-21 04:58N 60°20' E 028°42'0 0.0
2017-Sep-21 04:10N 60°20' E 028°42'0 0.0
2017-Sep-21 03:58N 60°20' E 028°42'0 0.0
2017-Sep-21 03:28N 60°20' E 028°42'0 0.0
2017-Sep-21 02:58N 60°20' E 028°42'0 0.0
2017-Sep-21 02:28N 60°20' E 028°42'0 0.0
2017-Sep-21 01:58N 60°20' E 028°42'0 0.0
2017-Sep-21 01:25N 60°20' E 028°42'0 0.0
2017-Sep-21 00:58N 60°20' E 028°42'0 0.0
2017-Sep-21 00:28N 60°20' E 028°42'0 0.0
2017-Sep-20 23:58N 60°20' E 028°42'0 0.0
2017-Sep-20 23:28N 60°20' E 028°42'0 0.0
2017-Sep-20 22:58N 60°20' E 028°42'0 0.0
2017-Sep-20 22:28N 60°20' E 028°42'0 0.0
2017-Sep-20 21:55N 60°20' E 028°42'0 0.0
2017-Sep-20 21:28N 60°20' E 028°42'0 0.0
2017-Sep-20 20:58N 60°20' E 028°42'0 0.0
2017-Sep-20 20:28N 60°20' E 028°42'0 0.0
2017-Sep-20 19:58N 60°20' E 028°42'0 0.0
2017-Sep-20 19:28N 60°20' E 028°42'0 0.0
2017-Sep-20 18:46N 60°20' E 028°42'0 0.0
2017-Sep-20 17:40N 60°20' E 028°42'0 0.0
2017-Sep-20 17:13N 60°20' E 028°42'0 0.0
2017-Sep-20 16:46N 60°20' E 028°42'0 0.0
2017-Sep-20 16:22N 60°20' E 028°42'0 0.0
2017-Sep-20 15:46N 60°20' E 028°42'0 0.0
2017-Sep-20 15:28N 60°20' E 028°42'0 0.0
2017-Sep-20 14:58N 60°20' E 028°42'0 0.5
2017-Sep-20 14:00N 60°20' E 028°41'3 6.0
2017-Sep-20 13:31N 60°17' E 028°45'3 7.0
2017-Sep-20 13:00N 60°14' E 028°47'612.4
2017-Sep-20 12:30N 60°10' E 028°39'510.8
2017-Sep-20 12:00N 60°05' E 028°33'5 9.5
2017-Sep-20 11:30N 60°01' E 028°27'0 0.5
2017-Sep-20 11:00N 60°01' E 028°27'0 0.1
2017-Sep-20 10:30N 60°01' E 028°27'0 0.1
2017-Sep-20 09:59N 60°01' E 028°27'0 0.0
2017-Sep-20 09:29N 60°01' E 028°27'0 0.0
2017-Sep-20 08:59N 60°01' E 028°27'0 0.1
2017-Sep-20 08:29N 60°01' E 028°27'0 0.2
2017-Sep-20 07:59N 60°01' E 028°27'0 0.2
2017-Sep-20 07:29N 60°01' E 028°27'0 0.1
2017-Sep-20 06:59N 60°01' E 028°27'0 0.1
2017-Sep-20 06:29N 60°01' E 028°27'0 0.1
2017-Sep-20 05:59N 60°01' E 028°27'0 0.1
2017-Sep-20 05:29N 60°01' E 028°27'0 0.1
2017-Sep-20 04:59N 60°01' E 028°27'0 0.1
2017-Sep-20 04:29N 60°01' E 028°27'0 0.1
2017-Sep-20 03:59N 60°01' E 028°27'0 0.0
2017-Sep-20 03:29N 60°01' E 028°27'0 0.1
2017-Sep-20 02:59N 60°01' E 028°27'0 0.0
2017-Sep-20 02:29N 60°01' E 028°27'0 0.0
2017-Sep-20 01:59N 60°01' E 028°27'0 0.1
2017-Sep-20 01:29N 60°01' E 028°27'0 0.0
2017-Sep-20 00:59N 60°01' E 028°27'0 0.0
2017-Sep-20 00:29N 60°01' E 028°27'0 0.0
2017-Sep-19 23:59N 60°01' E 028°27'0 0.1
2017-Sep-19 23:29N 60°01' E 028°27'0 0.0
2017-Sep-19 22:59N 60°01' E 028°27'0 0.0
2017-Sep-19 22:26N 60°01' E 028°27'0 0.1
2017-Sep-19 21:59N 60°01' E 028°27'0 0.1
2017-Sep-19 21:29N 60°01' E 028°27'0 0.5
2017-Sep-19 21:00N 60°01' E 028°27'2 3.2
2017-Sep-19 20:30N 60°03' E 028°27'4 7.1
2017-Sep-19 20:00N 60°05' E 028°21'4 8.4
2017-Sep-19 19:30N 60°07' E 028°14'4 8.5
2017-Sep-19 19:00N 60°08' E 028°06'5 9.0
2017-Sep-19 18:30N 60°10' E 027°57'4 8.9
2017-Sep-19 18:00N 60°11' E 027°49'4 8.7
2017-Sep-19 17:30N 60°09' E 027°41'4 8.8
2017-Sep-19 17:00N 60°07' E 027°33'4 8.9
2017-Sep-19 16:30N 60°05' E 027°26'4 8.9
2017-Sep-19 16:00N 60°02' E 027°18'4 9.0
2017-Sep-19 15:30N 59°60' E 027°10'4 8.9
2017-Sep-19 15:00N 59°58' E 027°02'5 9.2
2017-Sep-19 14:30N 59°59' E 026°53'5 9.2
2017-Sep-19 14:00N 59°60' E 026°44'5 9.1
2017-Sep-19 13:30N 59°59' E 026°35'510.0
2017-Sep-19 13:00N 59°57' E 026°26'510.4
2017-Sep-19 12:30N 59°56' E 026°16'3910.4
2017-Sep-19 08:46N 59°47' E 024°60'310.2
2017-Sep-19 08:30N 59°47' E 024°55'510.0
2017-Sep-19 08:00N 59°45' E 024°45'510.1
2017-Sep-19 07:30N 59°45' E 024°35'510.2
2017-Sep-19 07:00N 59°44' E 024°25'1010.2
2017-Sep-19 06:04N 59°41' E 024°07'110.1
2017-Sep-19 05:59N 59°40' E 024°06'510.1
2017-Sep-19 05:30N 59°39' E 023°56'611.2
2017-Sep-19 05:00N 59°38' E 023°46'714.3
2017-Sep-19 04:31N 59°35' E 023°33'714.2
2017-Sep-19 04:01N 59°32' E 023°20'813.9
2017-Sep-19 03:26N 59°29' E 023°05'30112.3
2017-Sep-18 02:58N 55°47' E 016°44'511.7
2017-Sep-18 02:30N 55°46' E 016°35'611.8
2017-Sep-18 02:00N 55°45' E 016°25'611.8
2017-Sep-18 01:30N 55°43' E 016°15'611.9
2017-Sep-18 01:00N 55°42' E 016°05'612.0
2017-Sep-18 00:30N 55°40' E 015°54'611.8
2017-Sep-18 00:00N 55°39' E 015°44'611.9
2017-Sep-17 23:30N 55°37' E 015°34'611.9
2017-Sep-17 23:00N 55°36' E 015°24'612.0
2017-Sep-17 22:30N 55°33' E 015°14'612.1
2017-Sep-17 22:00N 55°31' E 015°05'612.2
2017-Sep-17 21:30N 55°28' E 014°55'712.3
2017-Sep-17 20:57N 55°26' E 014°44'611.9
2017-Sep-17 20:29N 55°22' E 014°36'612.4
2017-Sep-17 20:00N 55°18' E 014°29'612.0
2017-Sep-17 19:30N 55°13' E 014°22'611.5
2017-Sep-17 19:00N 55°09' E 014°15'612.3
2017-Sep-17 18:30N 55°10' E 014°04'612.3
2017-Sep-17 18:00N 55°10' E 013°53'912.4
2017-Sep-17 17:15N 55°10' E 013°37'612.3
2017-Sep-17 16:46N 55°11' E 013°26'612.2
2017-Sep-17 16:15N 55°12' E 013°15'312.3
2017-Sep-17 16:00N 55°12' E 013°10'612.6
2017-Sep-17 15:30N 55°14' E 012°59'713.4
2017-Sep-17 15:00N 55°15' E 012°48'612.7
2017-Sep-17 14:30N 55°18' E 012°38'510.4
2017-Sep-17 14:00N 55°24' E 012°38'4 8.8
2017-Sep-17 13:30N 55°28' E 012°40'4 8.3
2017-Sep-17 13:00N 55°32' E 012°42'4 7.1
2017-Sep-17 12:30N 55°35' E 012°42'3 6.8
2017-Sep-17 12:00N 55°39' E 012°41'5 9.9
2017-Sep-17 11:30N 55°44' E 012°41'611.8
2017-Sep-17 11:00N 55°50' E 012°42'713.8
2017-Sep-17 10:30N 55°56' E 012°39'713.5
2017-Sep-17 10:00N 56°03' E 012°39'613.0
2017-Sep-17 09:30N 56°07' E 012°30'5 9.0
2017-Sep-17 09:00N 56°10' E 012°24'5 9.1
2017-Sep-17 08:27N 56°13' E 012°16'3510.0
2017-Sep-17 04:55N 56°46' E 011°52'712.8
2017-Sep-17 04:22N 56°52' E 011°48'513.0
2017-Sep-17 04:00N 56°57' E 011°45'612.9
2017-Sep-17 03:30N 57°03' E 011°41'712.6
2017-Sep-17 02:58N 57°09' E 011°36'612.8
2017-Sep-17 02:30N 57°15' E 011°32'612.8
2017-Sep-17 02:00N 57°21' E 011°29'612.6
2017-Sep-17 01:30N 57°27' E 011°25'612.7
2017-Sep-17 01:00N 57°31' E 011°16'612.4
2017-Sep-17 00:30N 57°35' E 011°08'612.5
2017-Sep-17 00:00N 57°40' E 010°59'612.5
2017-Sep-16 23:30N 57°44' E 010°51'611.8
2017-Sep-16 23:00N 57°48' E 010°42'713.9
2017-Sep-16 22:31N 57°48' E 010°30'714.3
2017-Sep-16 22:01N 57°47' E 010°16'45413.3
2017-Sep-15 11:47N 51°41' E 002°31'415.6
2017-Sep-15 11:31N 51°38' E 002°26'815.7
2017-Sep-15 11:00N 51°32' E 002°18'815.9
2017-Sep-15 10:31N 51°26' E 002°10'815.2
2017-Sep-15 10:01N 51°19' E 002°08'714.9
2017-Sep-15 09:31N 51°13' E 002°00'816.2
2017-Sep-15 09:01N 51°08' E 001°49'816.3
2017-Sep-15 08:30N 51°03' E 001°40'816.7
2017-Sep-15 08:01N 50°57' E 001°31'1516.3
2017-Sep-15 07:05N 50°43' E 001°21'215.6
2017-Sep-15 06:57N 50°41' E 001°19'715.9
2017-Sep-15 06:31N 50°36' E 001°11'815.7
2017-Sep-15 06:00N 50°31' E 001°03'3015.7
2017-Sep-15 04:05N 50°22' E 000°17'116.4
2017-Sep-15 04:00N 50°22' E 000°15'816.5
2017-Sep-15 03:30N 50°20' E 000°03'816.5
2017-Sep-15 03:01N 50°17' W 000°10'3816.6
2017-Sep-15 00:43N 50°08' W 001°07'316.0
2017-Sep-15 00:30N 50°07' W 001°12'815.6
2017-Sep-15 00:00N 50°05' W 001°24'815.1
2017-Sep-14 23:30N 50°03' W 001°35'714.5
2017-Sep-14 23:00N 50°01' W 001°46'714.0
2017-Sep-14 22:31N 49°59' W 001°57'713.5
2017-Sep-14 22:01N 49°57' W 002°07'2513.2
2017-Sep-14 20:08N 49°50' W 002°44'213.7
2017-Sep-14 20:00N 49°50' W 002°46'713.7
2017-Sep-14 19:30N 49°48' W 002°56'713.8
2017-Sep-14 19:00N 49°45' W 003°06'714.0
2017-Sep-14 18:30N 49°41' W 003°15'714.2
2017-Sep-14 18:00N 49°37' W 003°25'714.1
2017-Sep-14 17:30N 49°34' W 003°34'7314.1
2017-Sep-14 12:21N 48°58' W 005°11'814.2
2017-Sep-14 11:49N 48°54' W 005°21'514.2
2017-Sep-14 11:27N 48°51' W 005°27'812.9
2017-Sep-14 10:51N 48°45' W 005°35'58612.6
2017-Sep-12 12:21N 39°29' W 009°52'412.4
2017-Sep-12 12:00N 39°25' W 009°52'612.7
2017-Sep-12 11:30N 39°18' W 009°52'612.7
2017-Sep-12 11:00N 39°12' W 009°52'612.4
2017-Sep-12 10:30N 39°06' W 009°51'612.6
2017-Sep-12 10:00N 38°60' W 009°51'612.4
2017-Sep-12 09:30N 38°53' W 009°52'612.0
2017-Sep-12 09:00N 38°48' W 009°51'612.5
2017-Sep-12 08:30N 38°41' W 009°51'713.6
2017-Sep-12 08:00N 38°35' W 009°49'713.2
2017-Sep-12 07:30N 38°28' W 009°47'713.3
2017-Sep-12 07:00N 38°22' W 009°45'713.4
2017-Sep-12 06:29N 38°15' W 009°43'613.1
2017-Sep-12 06:00N 38°09' W 009°41'713.1
2017-Sep-12 05:30N 38°02' W 009°39'713.9
2017-Sep-12 05:00N 37°56' W 009°37'714.1
2017-Sep-12 04:30N 37°49' W 009°35'714.3
2017-Sep-12 04:00N 37°42' W 009°33'714.5
2017-Sep-12 03:30N 37°35' W 009°31'714.5
2017-Sep-12 03:00N 37°28' W 009°29'714.2
2017-Sep-12 02:30N 37°21' W 009°27'  

Dump ship's entire track history